Time;durP1;ratioP1;P1;durP2;ratioP2;P2;SDS_P1;SDS_P2;PMS_P1;PMS_P2;Temp;Humidity;BMP_temperature;BMP_pressure;BME280_temperature;BME280_humidity;BME280_pressure;Samples;Min_cycle;Max_cycle;Signal;HPM_P1;HPM_P2
2022/07/20 00:01:38;;;;;;;14.40;6.10;;;23.10;8.90;;;;;;5054869;28;20482;-72
2022/07/20 00:04:05;;;;;;;9.50;5.50;;;23.10;9.00;;;;;;5056244;28;21005;-71
2022/07/20 00:06:32;;;;;;;8.50;5.40;;;23.10;9.10;;;;;;5056547;28;20920;-72
2022/07/20 00:11:43;;;;;;;14.20;6.60;;;23.00;9.10;;;;;;5055669;28;20826;-72
2022/07/20 00:14:10;;;;;;;8.47;5.60;;;22.90;9.10;;;;;;5056078;28;20461;-72
2022/07/20 00:16:38;;;;;;;12.67;6.03;;;22.90;9.20;;;;;;5057411;28;20487;-73
2022/07/20 00:19:06;;;;;;;12.60;5.90;;;22.90;9.30;;;;;;5057672;28;20483;-73
2022/07/20 00:21:33;;;;;;;10.87;6.23;;;22.90;9.10;;;;;;5056427;28;20464;-72
2022/07/20 00:24:00;;;;;;;9.70;6.43;;;22.90;9.20;;;;;;5056454;28;21038;-72
2022/07/20 00:26:27;;;;;;;9.97;5.47;;;22.80;9.20;;;;;;5057501;28;20481;-72
2022/07/20 00:28:53;;;;;;;9.03;5.67;;;22.80;9.30;;;;;;5057107;28;20485;-72
2022/07/20 00:31:21;;;;;;;11.27;5.80;;;22.80;9.20;;;;;;5055527;28;20478;-72
2022/07/20 00:33:49;;;;;;;11.53;6.13;;;22.80;9.30;;;;;;5053527;28;21139;-72
2022/07/20 00:36:17;;;;;;;9.67;5.70;;;22.80;9.20;;;;;;5055706;28;20615;-72
2022/07/20 00:38:45;;;;;;;14.43;6.27;;;22.80;9.30;;;;;;5057177;28;20567;-72
2022/07/20 00:41:13;;;;;;;9.30;5.77;;;22.70;9.40;;;;;;5056825;28;20460;-72
2022/07/20 00:44:01;;;;;;;9.70;6.00;;;22.70;9.40;;;;;;5053719;28;21030;-73
2022/07/20 00:46:29;;;;;;;9.60;5.47;;;22.70;9.90;;;;;;5056351;28;20482;-72
2022/07/20 00:48:58;;;;;;;11.20;6.73;;;22.60;9.50;;;;;;5055910;28;21049;-72
2022/07/20 00:51:25;;;;;;;9.90;5.70;;;22.60;10.10;;;;;;5056847;28;20537;-72
2022/07/20 00:53:52;;;;;;;11.07;6.47;;;22.60;9.60;;;;;;5052847;28;20985;-72
2022/07/20 00:56:20;;;;;;;9.73;5.90;;;22.60;9.70;;;;;;5054306;28;20584;-72
2022/07/20 00:58:47;;;;;;;10.73;7.07;;;22.50;9.80;;;;;;5055625;28;20835;-72
2022/07/20 01:01:15;;;;;;;11.07;7.10;;;22.50;9.80;;;;;;5056384;28;20908;-72
2022/07/20 01:03:42;;;;;;;10.17;6.50;;;22.50;9.90;;;;;;5055910;28;20468;-72
2022/07/20 01:06:11;;;;;;;11.00;6.60;;;22.50;10.00;;;;;;5054308;28;20775;-72
2022/07/20 01:08:38;;;;;;;19.27;7.13;;;22.40;10.10;;;;;;5055700;28;21063;-72
2022/07/20 01:11:05;;;;;;;11.03;6.60;;;22.40;10.20;;;;;;5056134;28;20986;-72
2022/07/20 01:13:32;;;;;;;16.87;7.90;;;22.30;10.30;;;;;;5055324;28;20468;-72
2022/07/20 01:15:59;;;;;;;14.50;7.60;;;22.30;10.40;;;;;;5052849;28;21045;-72
2022/07/20 01:18:26;;;;;;;11.87;6.97;;;22.30;10.40;;;;;;5055964;28;20833;-72
2022/07/20 01:20:52;;;;;;;10.90;7.17;;;22.20;10.60;;;;;;5040431;28;20455;-73
2022/07/20 01:23:20;;;;;;;12.20;6.93;;;22.20;10.50;;;;;;5047487;28;20484;-72
2022/07/20 01:25:47;;;;;;;11.60;7.47;;;22.10;10.60;;;;;;5047107;28;20552;-71
2022/07/20 01:28:15;;;;;;;15.73;8.30;;;22.10;10.60;;;;;;5047302;28;21033;-72
2022/07/20 01:30:43;;;;;;;10.20;8.03;;;22.10;10.80;;;;;;5040049;28;20463;-72
2022/07/20 01:33:10;;;;;;;9.17;6.77;;;22.00;10.80;;;;;;5041713;28;20458;-72
2022/07/20 01:35:37;;;;;;;13.20;7.00;;;22.00;10.80;;;;;;5047414;28;20489;-72
2022/07/20 01:38:04;;;;;;;11.63;7.47;;;22.00;11.00;;;;;;5046299;28;20469;-72
2022/07/20 01:40:33;;;;;;;13.57;7.07;;;22.00;11.30;;;;;;5049148;28;20470;-72
2022/07/20 01:43:00;;;;;;;9.90;6.73;;;21.90;11.40;;;;;;5050685;28;20461;-72
2022/07/20 01:45:26;;;;;;;9.03;5.80;;;21.90;11.40;;;;;;5047035;28;20489;-72
2022/07/20 01:47:53;;;;;;;11.00;6.47;;;21.80;11.60;;;;;;5048381;28;20848;-72
2022/07/20 01:50:20;;;;;;;11.70;5.37;;;21.80;11.80;;;;;;5045834;28;20466;-72
2022/07/20 01:52:47;;;;;;;8.60;5.30;;;21.70;11.90;;;;;;5040848;28;20688;-72
2022/07/20 01:55:15;;;;;;;12.47;5.70;;;21.70;11.80;;;;;;5048069;28;20507;-72
2022/07/20 01:57:44;;;;;;;11.93;5.80;;;21.70;11.80;;;;;;5049743;28;20548;-72
2022/07/20 02:00:13;;;;;;;12.40;5.43;;;21.60;11.80;;;;;;5050334;28;20999;-72
2022/07/20 02:02:40;;;;;;;10.13;6.17;;;21.60;11.80;;;;;;5045723;28;20462;-72
2022/07/20 02:05:09;;;;;;;14.63;6.53;;;21.60;11.90;;;;;;5043860;28;20490;-72
2022/07/20 02:07:36;;;;;;;15.50;5.97;;;21.50;11.80;;;;;;5057539;28;20484;-72
2022/07/20 02:10:03;;;;;;;11.00;5.63;;;21.50;12.00;;;;;;5051108;28;20487;-72
2022/07/20 02:12:30;;;;;;;10.83;5.60;;;21.50;12.00;;;;;;5037965;28;21023;-72
2022/07/20 02:14:58;;;;;;;10.93;5.27;;;21.50;12.10;;;;;;5049020;28;20472;-72
2022/07/20 02:17:25;;;;;;;9.10;5.53;;;21.40;12.00;;;;;;5049726;28;20560;-72
2022/07/20 02:19:52;;;;;;;9.83;5.30;;;21.40;12.20;;;;;;5047467;28;20515;-72
2022/07/20 02:22:18;;;;;;;12.30;5.40;;;21.30;12.30;;;;;;5049987;28;20485;-72
2022/07/20 02:24:45;;;;;;;8.00;5.20;;;21.30;12.20;;;;;;5050853;28;20484;-72
2022/07/20 02:27:12;;;;;;;8.77;5.30;;;21.30;12.40;;;;;;5050658;28;20468;-72
2022/07/20 02:29:39;;;;;;;7.83;5.30;;;21.30;12.40;;;;;;5049941;28;21081;-72
2022/07/20 02:32:08;;;;;;;8.90;5.57;;;21.20;12.50;;;;;;5048724;28;20474;-73
2022/07/20 02:34:35;;;;;;;8.20;5.53;;;21.20;12.40;;;;;;5048070;28;20674;-72
2022/07/20 02:37:01;;;;;;;9.57;5.80;;;21.20;12.50;;;;;;5050571;28;20473;-72
2022/07/20 02:39:28;;;;;;;10.20;6.13;;;21.20;12.40;;;;;;5050538;28;21001;-72
2022/07/20 02:41:55;;;;;;;9.47;5.83;;;21.20;12.60;;;;;;5049476;28;20849;-71
2022/07/20 02:47:47;;;;;;;10.60;5.27;;;21.10;12.60;;;;;;5048163;28;20989;-72
2022/07/20 02:50:14;;;;;;;9.70;5.17;;;21.10;12.60;;;;;;5049722;28;20541;-72
2022/07/20 02:52:42;;;;;;;8.53;4.57;;;21.10;12.60;;;;;;5047484;28;20474;-72
2022/07/20 02:55:09;;;;;;;8.57;5.60;;;21.10;12.90;;;;;;5038910;28;20582;-72
2022/07/20 02:57:36;;;;;;;11.80;5.50;;;21.00;13.00;;;;;;5049032;28;20466;-72
2022/07/20 03:00:04;;;;;;;8.63;5.13;;;21.00;12.90;;;;;;5045448;28;20470;-72
2022/07/20 03:02:31;;;;;;;8.93;4.93;;;21.00;12.90;;;;;;5050323;28;20478;-72
2022/07/20 03:05:21;;;;;;;10.47;5.40;;;21.00;13.20;;;;;;5049005;28;20469;-72
2022/07/20 03:07:48;;;;;;;8.03;5.33;;;20.90;13.20;;;;;;5049881;28;20576;-72
2022/07/20 03:10:15;;;;;;;13.33;5.80;;;20.90;13.10;;;;;;5046373;28;20467;-72
2022/07/20 03:12:42;;;;;;;11.30;5.37;;;20.90;13.00;;;;;;5042585;28;20973;-71
2022/07/20 03:15:10;;;;;;;11.80;6.90;;;20.90;13.10;;;;;;5049535;28;20504;-72
2022/07/20 03:17:42;;;;;;;10.20;5.83;;;20.90;13.10;;;;;;5049517;28;20462;-72
2022/07/20 03:20:11;;;;;;;15.10;6.60;;;20.80;13.40;;;;;;5047732;28;20553;-72
2022/07/20 03:22:39;;;;;;;9.93;5.97;;;20.70;13.70;;;;;;5045904;28;20829;-72
2022/07/20 03:25:07;;;;;;;11.73;6.77;;;20.60;13.80;;;;;;5047061;28;20460;-72
2022/07/20 03:27:35;;;;;;;11.33;6.80;;;20.50;13.90;;;;;;5039521;28;21008;-72
2022/07/20 03:30:01;;;;;;;9.73;6.63;;;20.50;13.70;;;;;;5055659;28;20466;-71
2022/07/20 03:32:28;;;;;;;11.80;5.70;;;20.50;13.80;;;;;;5047516;28;20481;-71
2022/07/20 03:34:55;;;;;;;11.20;6.67;;;20.50;13.60;;;;;;5038113;28;20454;-71
2022/07/20 03:37:22;;;;;;;10.17;5.80;;;20.50;13.90;;;;;;5049718;28;20458;-72
2022/07/20 03:39:50;;;;;;;14.07;5.53;;;20.50;14.00;;;;;;5049225;28;20461;-72
2022/07/20 03:42:17;;;;;;;9.53;6.20;;;20.50;14.20;;;;;;5047727;28;20462;-72
2022/07/20 03:44:44;;;;;;;8.00;5.33;;;20.40;14.10;;;;;;5048444;28;20465;-72
2022/07/20 03:47:11;;;;;;;12.73;5.60;;;20.40;14.20;;;;;;5049008;28;20485;-72
2022/07/20 03:49:37;;;;;;;12.20;6.40;;;20.40;14.50;;;;;;5047022;28;20478;-72
2022/07/20 03:52:05;;;;;;;9.17;5.90;;;20.30;14.60;;;;;;5048511;28;20553;-72
2022/07/20 03:54:32;;;;;;;11.80;6.90;;;20.30;14.50;;;;;;5046723;28;20466;-72
2022/07/20 03:57:00;;;;;;;13.60;6.50;;;20.30;15.20;;;;;;5042900;28;20477;-71
2022/07/20 03:59:27;;;;;;;12.33;6.50;;;20.30;14.60;;;;;;5047650;28;20462;-71
2022/07/20 04:01:54;;;;;;;8.37;5.93;;;20.30;14.60;;;;;;5045554;28;20568;-73
2022/07/20 04:04:20;;;;;;;9.83;6.27;;;20.20;14.80;;;;;;5048033;28;21159;-72
2022/07/20 04:06:47;;;;;;;9.60;6.47;;;20.20;14.80;;;;;;5036339;28;20660;-71
2022/07/20 04:09:14;;;;;;;9.30;6.03;;;20.20;14.70;;;;;;5035787;28;20649;-72
2022/07/20 04:11:41;;;;;;;12.10;6.40;;;20.30;14.80;;;;;;5048427;28;20469;-72
2022/07/20 04:14:09;;;;;;;9.97;6.20;;;20.30;14.80;;;;;;5046977;28;20472;-72
2022/07/20 04:20:23;;;;;;;10.20;6.30;;;20.40;15.30;;;;;;5039100;28;20484;-72
2022/07/20 04:22:50;;;;;;;12.23;6.30;;;20.40;14.70;;;;;;5047249;28;20963;-72
2022/07/20 04:25:39;;;;;;;12.13;6.70;;;20.50;14.50;;;;;;5050449;28;20997;-72
2022/07/20 04:28:06;;;;;;;9.43;5.33;;;20.50;14.80;;;;;;5054906;28;20460;-73
2022/07/20 04:30:35;;;;;;;11.47;5.47;;;20.50;14.40;;;;;;5045317;28;20458;-72
2022/07/20 04:33:02;;;;;;;10.60;6.13;;;20.60;14.40;;;;;;5045857;28;20512;-72
2022/07/20 04:35:29;;;;;;;9.70;6.33;;;20.70;14.40;;;;;;5052159;28;20705;-72
2022/07/20 04:37:56;;;;;;;8.20;5.47;;;20.90;14.30;;;;;;5050748;28;20472;-71
2022/07/20 04:40:23;;;;;;;8.63;5.63;;;21.10;13.80;;;;;;5055128;28;20462;-72
2022/07/20 04:42:49;;;;;;;8.80;5.90;;;21.20;13.60;;;;;;5046267;28;20634;-72
2022/07/20 04:45:16;;;;;;;11.10;6.20;;;21.30;13.30;;;;;;5058970;28;20492;-73
2022/07/20 04:47:45;;;;;;;11.20;5.77;;;21.40;13.00;;;;;;5042962;28;20463;-73
2022/07/20 04:50:12;;;;;;;9.43;6.47;;;21.40;13.30;;;;;;5040788;28;20495;-74
2022/07/20 04:52:39;;;;;;;11.40;6.43;;;21.40;13.10;;;;;;5047579;28;20539;-72
2022/07/20 04:55:06;;;;;;;10.93;6.20;;;21.40;13.40;;;;;;5047507;28;20545;-72
2022/07/20 04:57:33;;;;;;;9.50;6.50;;;21.40;13.50;;;;;;5053151;28;20472;-72
2022/07/20 05:00:00;;;;;;;8.97;6.40;;;21.80;13.30;;;;;;5036870;28;20809;-72
2022/07/20 05:02:27;;;;;;;11.60;6.97;;;22.90;12.20;;;;;;5042757;28;20481;-72
2022/07/20 05:04:55;;;;;;;9.73;6.27;;;24.10;10.20;;;;;;5040991;28;20463;-71
2022/07/20 05:07:22;;;;;;;10.30;5.17;;;25.30;8.40;;;;;;5045403;28;20564;-71
2022/07/20 05:09:48;;;;;;;8.77;5.27;;;26.50;6.90;;;;;;5046484;28;20478;-72
2022/07/20 05:12:15;;;;;;;8.60;5.80;;;27.70;5.00;;;;;;5052394;28;20461;-72
2022/07/20 05:14:42;;;;;;;7.60;5.10;;;28.80;3.30;;;;;;5040939;28;20466;-72
2022/07/20 05:17:09;;;;;;;9.10;5.70;;;29.80;1.70;;;;;;5047068;28;20486;-71
2022/07/20 05:19:36;;;;;;;9.77;5.43;;;30.70;1.00;;;;;;5051784;28;20841;-71
2022/07/20 05:22:04;;;;;;;10.17;4.93;;;31.50;1.00;;;;;;5047818;28;20954;-72
2022/07/20 05:24:31;;;;;;;7.67;5.37;;;32.40;1.00;;;;;;5052116;28;20470;-72
2022/07/20 05:26:57;;;;;;;9.00;5.30;;;33.30;1.00;;;;;;5053033;28;20487;-72
2022/07/20 05:29:24;;;;;;;10.10;5.43;;;34.10;1.00;;;;;;5050503;28;20482;-72
2022/07/20 05:31:51;;;;;;;10.00;5.90;;;34.90;1.00;;;;;;5051311;28;20868;-72
2022/07/20 05:34:18;;;;;;;8.47;5.43;;;35.60;1.00;;;;;;5051344;28;20553;-72
2022/07/20 05:36:44;;;;;;;9.27;5.47;;;36.20;1.00;;;;;;5051174;28;20470;-72
2022/07/20 05:42:35;;;;;;;8.73;6.00;;;37.50;1.00;;;;;;5038666;28;20417;-72
2022/07/20 05:45:01;;;;;;;10.97;5.80;;;38.40;1.00;;;;;;5042189;28;20961;-72
2022/07/20 05:47:28;;;;;;;8.40;5.60;;;39.00;1.00;;;;;;5049401;28;20458;-72
2022/07/20 05:49:55;;;;;;;6.77;5.37;;;39.50;1.00;;;;;;5051181;28;21002;-72
2022/07/20 05:52:22;;;;;;;9.40;4.97;;;40.00;1.00;;;;;;5051395;28;20469;-72
2022/07/20 05:54:48;;;;;;;10.90;5.33;;;40.60;1.00;;;;;;5051297;28;20454;-72
2022/07/20 05:57:15;;;;;;;8.00;5.57;;;41.20;1.00;;;;;;5047894;28;20461;-72
2022/07/20 05:59:44;;;;;;;8.10;4.97;;;41.90;1.00;;;;;;5049437;28;20466;-72
2022/07/20 06:02:11;;;;;;;8.43;4.63;;;42.30;1.00;;;;;;5060618;28;20514;-72
2022/07/20 06:04:38;;;;;;;8.47;5.50;;;42.70;1.00;;;;;;5050000;28;20453;-72
2022/07/20 06:07:05;;;;;;;11.20;5.27;;;43.40;1.00;;;;;;5046184;28;20484;-72
2022/07/20 06:09:32;;;;;;;7.97;5.37;;;44.00;1.00;;;;;;5049712;28;20489;-72
2022/07/20 06:11:59;;;;;;;7.77;5.13;;;44.60;1.00;;;;;;5050364;28;20955;-72
2022/07/20 06:14:26;;;;;;;8.73;5.43;;;45.00;1.00;;;;;;5050955;28;20624;-72
2022/07/20 06:16:54;;;;;;;7.43;4.93;;;45.50;1.00;;;;;;5051633;28;20481;-72
2022/07/20 06:19:21;;;;;;;8.43;4.87;;;46.10;1.00;;;;;;5050213;28;20493;-72
2022/07/20 06:21:48;;;;;;;7.33;4.40;;;46.60;1.00;;;;;;5049419;28;20465;-72
2022/07/20 06:24:15;;;;;;;9.33;5.00;;;47.20;1.00;;;;;;5049505;28;20888;-72
2022/07/20 06:26:42;;;;;;;7.07;5.67;;;47.70;1.00;;;;;;5051876;28;20488;-72
2022/07/20 06:29:09;;;;;;;11.37;5.60;;;48.10;1.00;;;;;;5048460;28;20582;-72
2022/07/20 06:31:35;;;;;;;10.10;5.37;;;48.30;1.00;;;;;;5054141;28;20552;-72
2022/07/20 06:34:06;;;;;;;7.57;5.23;;;48.70;1.00;;;;;;5048482;28;20834;-72
2022/07/20 06:36:33;;;;;;;8.50;4.57;;;49.30;1.00;;;;;;5050550;28;20776;-72
2022/07/20 06:39:00;;;;;;;6.93;4.70;;;49.70;1.00;;;;;;5048792;28;20458;-72
2022/07/20 06:41:27;;;;;;;8.67;4.70;;;49.90;1.00;;;;;;5038466;28;20462;-72
2022/07/20 06:43:53;;;;;;;10.97;5.30;;;50.20;1.00;;;;;;5063854;28;20917;-72
2022/07/20 06:46:20;;;;;;;9.60;5.20;;;50.30;1.00;;;;;;5049371;28;20486;-72
2022/07/20 06:48:47;;;;;;;6.90;4.63;;;50.70;1.00;;;;;;5048679;28;20462;-72
2022/07/20 06:51:15;;;;;;;7.97;5.17;;;51.10;1.00;;;;;;5050167;28;20462;-72
2022/07/20 06:53:42;;;;;;;7.37;4.47;;;51.50;1.00;;;;;;5049946;28;20480;-72
2022/07/20 06:56:09;;;;;;;7.80;4.60;;;51.60;1.00;;;;;;5049658;28;20481;-72
2022/07/20 06:58:36;;;;;;;8.10;4.90;;;52.10;1.00;;;;;;5048962;28;20470;-72
2022/07/20 07:01:03;;;;;;;8.87;4.80;;;52.30;1.00;;;;;;5049618;28;20907;-72
2022/07/20 07:03:30;;;;;;;7.33;4.83;;;52.60;1.00;;;;;;5049646;28;20914;-72
2022/07/20 07:05:56;;;;;;;5.63;4.37;;;53.00;1.00;;;;;;5057365;28;21005;-72
2022/07/20 07:08:24;;;;;;;8.40;4.90;;;53.20;1.00;;;;;;5054288;28;20869;-72
2022/07/20 07:10:51;;;;;;;8.53;4.90;;;53.50;1.00;;;;;;5049491;28;20481;-72
2022/07/20 07:13:18;;;;;;;9.47;4.77;;;54.00;1.00;;;;;;5049637;28;20815;-72
2022/07/20 07:15:45;;;;;;;10.50;4.37;;;54.20;1.00;;;;;;5048800;28;20492;-72
2022/07/20 07:18:12;;;;;;;6.93;3.60;;;54.60;1.00;;;;;;5038685;28;20466;-72
2022/07/20 07:20:39;;;;;;;6.77;3.87;;;54.90;1.00;;;;;;5047029;28;20464;-72
2022/07/20 07:23:05;;;;;;;7.30;3.83;;;55.20;1.00;;;;;;5046429;28;20476;-72
2022/07/20 07:28:57;;;;;;;7.97;4.13;;;55.60;1.00;;;;;;5054564;28;21386;-73
2022/07/20 07:31:27;;;;;;;6.90;4.43;;;55.80;1.00;;;;;;5043888;28;20470;-73
2022/07/20 07:33:54;;;;;;;9.10;4.50;;;56.20;1.00;;;;;;5040696;28;20469;-73
2022/07/20 07:36:22;;;;;;;9.67;4.30;;;56.50;1.00;;;;;;5066856;22;20930;-64
2022/07/20 07:38:48;;;;;;;13.23;4.30;;;56.60;1.00;;;;;;5065154;28;20335;-62
2022/07/20 07:41:16;;;;;;;9.00;4.77;;;57.20;1.00;;;;;;5063592;28;20208;-63
2022/07/20 07:43:43;;;;;;;7.95;4.63;;;57.70;1.00;;;;;;5058414;28;20209;-63
2022/07/20 07:46:11;;;;;;;7.03;4.75;;;58.00;1.00;;;;;;5062204;28;20202;-64
2022/07/20 07:48:38;;;;;;;5.60;4.55;;;58.10;1.00;;;;;;5057162;28;20662;-66
2022/07/20 07:51:05;;;;;;;9.32;4.50;;;58.30;1.00;;;;;;5058374;28;20575;-63
2022/07/20 07:53:31;;;;;;;10.05;4.85;;;59.00;1.00;;;;;;5067956;28;20916;-62
2022/07/20 07:55:58;;;;;;;7.20;4.20;;;59.10;1.00;;;;;;5067136;28;20195;-66
2022/07/20 07:58:25;;;;;;;6.20;4.50;;;59.00;1.00;;;;;;5057942;28;20198;-64
2022/07/20 08:00:52;;;;;;;9.38;4.57;;;59.20;1.00;;;;;;5064806;28;20227;-65
2022/07/20 08:03:22;;;;;;;8.35;4.22;;;59.30;1.00;;;;;;5068100;28;20202;-64
2022/07/20 08:05:49;;;;;;;8.15;4.10;;;59.30;1.00;;;;;;5074934;28;20198;-64
2022/07/20 08:08:16;;;;;;;7.93;4.75;;;59.50;1.00;;;;;;5063070;28;20215;-64
2022/07/20 08:10:44;;;;;;;5.72;4.75;;;59.60;1.00;;;;;;5064957;28;20222;-64
2022/07/20 08:13:11;;;;;;;7.78;4.82;;;59.70;1.00;;;;;;5059966;28;20195;-64
2022/07/20 08:15:39;;;;;;;7.03;4.22;;;60.00;1.00;;;;;;5065408;28;20198;-64
2022/07/20 08:18:06;;;;;;;7.07;4.82;;;60.20;1.00;;;;;;5062346;28;20202;-64
2022/07/20 08:20:34;;;;;;;7.15;4.32;;;60.50;1.00;;;;;;5068929;28;20221;-64
2022/07/20 08:23:01;;;;;;;5.47;4.78;;;60.60;1.00;;;;;;5064023;28;20198;-63
2022/07/20 08:25:29;;;;;;;11.70;4.78;;;60.60;1.00;;;;;;5068222;28;20199;-65
2022/07/20 08:28:08;;;;;;;6.45;4.20;;;60.90;1.00;;;;;;5067036;28;20198;-63
2022/07/20 08:30:34;;;;;;;8.73;4.43;;;61.10;1.00;;;;;;5059454;28;20230;-63
2022/07/20 08:33:01;;;;;;;8.77;5.43;;;61.00;1.00;;;;;;5058620;28;20305;-63
2022/07/20 08:35:28;;;;;;;5.55;4.72;;;61.30;1.00;;;;;;5068135;28;20203;-64
2022/07/20 08:37:56;;;;;;;6.97;5.03;;;61.50;1.00;;;;;;5056763;28;21782;-66
2022/07/20 08:40:23;;;;;;;10.40;4.88;;;61.50;1.00;;;;;;5058518;28;20690;-64
2022/07/20 08:42:50;;;;;;;8.65;4.72;;;61.60;1.00;;;;;;5057854;28;20209;-63
2022/07/20 08:45:17;;;;;;;7.00;5.10;;;61.50;1.00;;;;;;5056327;28;20251;-63
2022/07/20 08:47:45;;;;;;;8.30;4.70;;;61.60;1.00;;;;;;5064028;28;20210;-63
2022/07/20 08:50:12;;;;;;;8.32;5.65;;;61.60;1.00;;;;;;5065565;28;20226;-63
2022/07/20 08:52:39;;;;;;;5.40;4.55;;;61.80;1.00;;;;;;5066420;28;20206;-63
2022/07/20 08:55:10;;;;;;;8.15;4.90;;;61.80;1.00;;;;;;5061859;28;20194;-63
2022/07/20 08:57:37;;;;;;;8.45;5.05;;;61.80;1.00;;;;;;5062752;28;20232;-63
2022/07/20 09:00:04;;;;;;;7.18;5.15;;;62.20;1.00;;;;;;5063355;28;20221;-61
2022/07/20 09:02:49;;;;;;;6.30;5.07;;;62.50;1.00;;;;;;5065328;28;20230;-61
2022/07/20 09:05:16;;;;;;;8.10;4.80;;;62.60;1.00;;;;;;5065303;28;20216;-61
2022/07/20 09:07:44;;;;;;;5.80;4.50;;;62.80;1.00;;;;;;5066888;28;20201;-61
2022/07/20 09:10:15;;;;;;;9.32;5.32;;;62.80;1.00;;;;;;5065387;28;20593;-60
2022/07/20 09:12:57;;;;;;;9.55;5.07;;;62.70;1.00;;;;;;5066392;28;20190;-61
2022/07/20 09:15:30;;;;;;;6.60;4.68;;;62.70;1.00;;;;;;5061186;28;20206;-58
2022/07/20 09:18:08;;;;;;;6.13;5.18;;;62.90;1.00;;;;;;5057945;28;20191;-61
2022/07/20 09:20:37;;;;;;;6.40;4.35;;;62.90;1.00;;;;;;5063046;28;20224;-60
2022/07/20 09:23:06;;;;;;;6.55;4.60;;;63.20;1.00;;;;;;5062657;28;20677;-60
2022/07/20 09:25:35;;;;;;;8.15;4.45;;;63.20;1.00;;;;;;5060594;28;20198;-60
2022/07/20 09:28:02;;;;;;;6.85;4.82;;;62.90;1.00;;;;;;5063934;28;20199;-66
2022/07/20 09:30:29;;;;;;;6.60;5.28;;;62.70;1.00;;;;;;5063762;28;20234;-59
2022/07/20 09:32:59;;;;;;;6.78;4.38;;;62.80;1.00;;;;;;5060392;28;20218;-61
2022/07/20 09:35:29;;;;;;;6.00;4.55;;;62.70;1.00;;;;;;5061869;28;20203;-60
2022/07/20 09:38:01;;;;;;;9.98;4.63;;;62.40;1.00;;;;;;5057541;28;20296;-59
2022/07/20 09:40:28;;;;;;;9.93;4.88;;;62.50;1.00;;;;;;5063120;28;20222;-61
2022/07/20 09:42:56;;;;;;;8.13;4.78;;;62.50;1.00;;;;;;5058889;28;20202;-59
2022/07/20 09:45:29;;;;;;;9.57;5.05;;;62.40;1.00;;;;;;5068268;28;20216;-60
2022/07/20 09:48:08;;;;;;;6.97;4.05;;;61.10;1.00;;;;;;5060314;28;20206;-62
2022/07/20 09:50:37;;;;;;;7.32;4.50;;;58.70;1.00;;;;;;5069374;28;20225;-60
2022/07/20 09:53:05;;;;;;;9.00;5.22;;;56.20;1.00;;;;;;5070437;28;20662;-63
2022/07/20 09:55:33;;;;;;;6.60;4.80;;;54.50;1.00;;;;;;5066512;28;20202;-65
2022/07/20 09:58:02;;;;;;;8.07;4.97;;;52.70;1.00;;;;;;5070817;28;20198;-61
2022/07/20 10:00:29;;;;;;;7.83;5.03;;;51.10;1.00;;;;;;5062396;28;20862;-61
2022/07/20 10:02:58;;;;;;;7.30;4.90;;;49.70;1.00;;;;;;5063611;28;20464;-59
2022/07/20 10:05:29;;;;;;;6.90;4.97;;;48.10;1.00;;;;;;5072775;28;20951;-60
2022/07/20 10:07:56;;;;;;;9.13;5.40;;;46.90;1.00;;;;;;5069709;28;20472;-60
2022/07/20 10:10:23;;;;;;;7.90;4.87;;;45.80;1.00;;;;;;5072613;28;20481;-59
2022/07/20 10:12:50;;;;;;;11.10;5.33;;;44.80;1.00;;;;;;5074708;28;20469;-60
2022/07/20 10:15:23;;;;;;;8.90;5.40;;;44.00;1.00;;;;;;5068874;28;20957;-60
2022/07/20 10:17:50;;;;;;;6.40;5.33;;;43.30;1.00;;;;;;5072653;28;20469;-61
2022/07/20 10:20:31;;;;;;;7.17;5.37;;;42.80;1.00;;;;;;5074490;28;20885;-60
2022/07/20 10:23:38;;;;;;;11.10;4.30;;;42.20;1.00;;;;;;5071497;28;20484;-63
2022/07/20 10:26:08;;;;;;;14.33;5.27;;;41.60;1.00;;;;;;5065984;28;20465;-59
2022/07/20 10:28:37;;;;;;;10.87;4.90;;;41.20;1.00;;;;;;5065904;28;20998;-60
2022/07/20 10:31:16;;;;;;;6.50;5.03;;;41.00;1.00;;;;;;5066348;28;20506;-61
2022/07/20 10:33:44;;;;;;;7.40;5.10;;;40.80;1.00;;;;;;5065155;28;20493;-61
2022/07/20 10:38:57;;;;;;;8.43;4.43;;;40.30;1.00;;;;;;5069098;28;20505;-60
2022/07/20 10:41:35;;;;;;;9.17;4.53;;;40.00;1.00;;;;;;5063010;28;20829;-60
2022/07/20 10:44:27;;;;;;;11.60;4.77;;;39.90;1.00;;;;;;5060919;28;20461;-62
2022/07/20 10:46:55;;;;;;;8.60;5.10;;;39.70;1.00;;;;;;5059887;28;20982;-62
2022/07/20 10:50:03;;;;;;;11.80;4.33;;;39.60;1.00;;;;;;5059719;28;20489;-63
2022/07/20 10:52:32;;;;;;;7.20;4.30;;;39.40;1.00;;;;;;5058868;28;20461;-62
2022/07/20 10:54:59;;;;;;;6.50;4.57;;;39.30;1.00;;;;;;5057989;28;20544;-60
2022/07/20 10:57:27;;;;;;;9.47;4.80;;;39.00;1.00;;;;;;5055483;28;21134;-61
2022/07/20 11:00:08;;;;;;;8.07;4.10;;;38.80;1.00;;;;;;5067027;28;20534;-61
2022/07/20 11:02:37;;;;;;;6.10;3.50;;;38.70;1.00;;;;;;5065699;28;20842;-60
2022/07/20 11:05:05;;;;;;;6.83;4.10;;;38.60;1.00;;;;;;5063460;28;20906;-62
2022/07/20 11:07:34;;;;;;;12.97;4.67;;;38.50;1.00;;;;;;5065180;28;20821;-63
2022/07/20 11:10:18;;;;;;;6.57;4.67;;;38.40;1.00;;;;;;5061570;28;20488;-66
2022/07/20 11:12:54;;;;;;;6.40;3.80;;;38.40;1.00;;;;;;5061913;28;20474;-61
2022/07/20 11:15:21;;;;;;;8.10;3.93;;;38.30;1.00;;;;;;5058397;28;20530;-58
2022/07/20 11:17:49;;;;;;;8.07;4.00;;;38.30;1.00;;;;;;5060639;28;20956;-62
2022/07/20 11:20:17;;;;;;;5.90;3.40;;;38.20;1.00;;;;;;5060639;28;20481;-62
2022/07/20 11:22:44;;;;;;;6.03;3.60;;;38.20;1.00;;;;;;5061021;28;20996;-60
2022/07/20 11:25:11;;;;;;;6.37;3.90;;;38.10;1.00;;;;;;5063154;28;20454;-60
2022/07/20 11:27:38;;;;;;;9.30;3.40;;;38.00;1.00;;;;;;5060203;28;20960;-61
2022/07/20 11:30:07;;;;;;;6.50;3.40;;;37.90;1.00;;;;;;5060505;28;21233;-67
2022/07/20 11:32:34;;;;;;;6.03;3.23;;;37.70;1.00;;;;;;5059851;28;20485;-64
2022/07/20 11:35:03;;;;;;;5.47;3.80;;;37.60;1.00;;;;;;5059454;28;20481;-66
2022/07/20 11:37:30;;;;;;;6.73;3.50;;;37.50;1.00;;;;;;5063889;28;20477;-68
2022/07/20 11:39:57;;;;;;;5.83;3.93;;;37.50;1.00;;;;;;5064173;28;20842;-65
2022/07/20 11:42:24;;;;;;;5.53;3.00;;;37.40;1.00;;;;;;5061885;28;20466;-65
2022/07/20 11:45:09;;;;;;;9.17;3.13;;;37.30;1.00;;;;;;5064840;28;20457;-66
2022/07/20 11:47:36;;;;;;;7.73;4.63;;;37.30;1.00;;;;;;5058090;28;20469;-67
2022/07/20 11:50:09;;;;;;;4.93;3.20;;;37.20;1.00;;;;;;5062757;28;20484;-67
2022/07/20 11:52:41;;;;;;;6.73;3.07;;;37.20;1.00;;;;;;5063234;28;20468;-66
2022/07/20 11:55:09;;;;;;;7.73;3.93;;;37.10;1.00;;;;;;5063210;28;20461;-66
2022/07/20 11:57:38;;;;;;;7.30;4.23;;;37.10;1.00;;;;;;5059126;28;20493;-66
2022/07/20 12:00:06;;;;;;;6.20;3.10;;;37.10;1.00;;;;;;5064978;28;20992;-66
2022/07/20 12:02:33;;;;;;;6.77;3.40;;;36.90;1.00;;;;;;5064291;28;20509;-65
2022/07/20 12:05:00;;;;;;;5.73;3.67;;;36.90;1.00;;;;;;5064730;28;20469;-66
2022/07/20 12:10:20;;;;;;;7.57;3.73;;;36.80;1.00;;;;;;5058811;28;20476;-66
2022/07/20 12:13:01;;;;;;;6.20;3.77;;;36.70;1.00;;;;;;5058948;28;20505;-67
2022/07/20 12:15:28;;;;;;;8.50;3.57;;;36.70;1.00;;;;;;5058003;28;20460;-67
2022/07/20 12:17:55;;;;;;;5.60;3.47;;;36.70;1.00;;;;;;5062451;28;20465;-66
2022/07/20 12:20:22;;;;;;;6.80;3.60;;;36.60;1.00;;;;;;5063366;28;20480;-66
2022/07/20 12:22:56;;;;;;;6.73;4.03;;;36.60;1.00;;;;;;5060410;28;20465;-66
2022/07/20 12:25:34;;;;;;;8.23;3.00;;;36.50;1.00;;;;;;5057389;28;20520;-64
2022/07/20 12:28:01;;;;;;;5.90;3.57;;;36.50;1.00;;;;;;5055087;28;20577;-69
2022/07/20 12:30:29;;;;;;;6.77;3.43;;;36.50;1.00;;;;;;5057125;28;20485;-68
2022/07/20 12:33:04;;;;;;;5.80;3.40;;;36.40;1.00;;;;;;5061030;28;20605;-67
2022/07/20 12:35:31;;;;;;;5.97;3.40;;;36.40;1.00;;;;;;5054799;28;21004;-68
2022/07/20 12:38:00;;;;;;;7.10;4.30;;;36.50;1.00;;;;;;5061571;28;20480;-66
2022/07/20 12:40:32;;;;;;;6.10;4.50;;;36.50;1.00;;;;;;5061675;28;20508;-66
2022/07/20 12:42:59;;;;;;;8.00;4.70;;;36.50;1.00;;;;;;5058428;28;20461;-66
2022/07/20 12:45:26;;;;;;;7.67;4.27;;;36.50;1.00;;;;;;5061102;28;20992;-66
2022/07/20 12:47:53;;;;;;;8.73;4.20;;;36.60;1.00;;;;;;5057610;28;21939;-68
2022/07/20 12:50:19;;;;;;;6.33;4.03;;;36.50;1.00;;;;;;5058432;28;20485;-66
2022/07/20 12:52:46;;;;;;;7.97;4.60;;;36.50;1.00;;;;;;5056356;28;20481;-67
2022/07/20 12:55:15;;;;;;;7.43;4.50;;;36.50;1.00;;;;;;5057883;28;20453;-65
2022/07/20 12:57:42;;;;;;;9.97;4.93;;;36.50;1.00;;;;;;5060192;28;20469;-67
2022/07/20 13:00:10;;;;;;;8.60;4.80;;;36.50;1.00;;;;;;5059995;28;20483;-66
2022/07/20 13:02:37;;;;;;;6.33;4.67;;;36.50;1.00;;;;;;5058225;28;20469;-67
2022/07/20 13:05:04;;;;;;;6.50;4.60;;;36.40;1.00;;;;;;5061200;28;20458;-66
2022/07/20 13:07:30;;;;;;;7.20;4.37;;;36.50;1.00;;;;;;5059464;28;20484;-66
2022/07/20 13:09:57;;;;;;;6.87;5.07;;;36.50;1.00;;;;;;5062308;28;20846;-63
2022/07/20 13:12:26;;;;;;;8.77;5.37;;;36.50;1.00;;;;;;5055544;28;20494;-66
2022/07/20 13:14:52;;;;;;;8.00;4.83;;;36.60;1.00;;;;;;5062385;28;20495;-66
2022/07/20 13:17:20;;;;;;;7.87;5.17;;;36.60;1.00;;;;;;5056075;28;20465;-66
2022/07/20 13:19:47;;;;;;;6.60;5.07;;;36.70;1.00;;;;;;5060233;28;20477;-67